sensor_id;sensor_type;location;lat;lon;timestamp;temperature;humidity
20977;DHT22;10647;51.016;3.720;2023-02-20T00:00:37;8.80;99.90
20977;DHT22;10647;51.016;3.720;2023-02-20T00:03:07;8.80;99.90
20977;DHT22;10647;51.016;3.720;2023-02-20T00:05:35;8.80;99.90
20977;DHT22;10647;51.016;3.720;2023-02-20T00:08:03;8.90;99.90
20977;DHT22;10647;51.016;3.720;2023-02-20T00:10:30;8.80;99.90
20977;DHT22;10647;51.016;3.720;2023-02-20T00:12:59;8.90;99.90
20977;DHT22;10647;51.016;3.720;2023-02-20T00:15:27;8.90;99.90
20977;DHT22;10647;51.016;3.720;2023-02-20T00:17:56;8.90;99.90
20977;DHT22;10647;51.016;3.720;2023-02-20T00:20:30;8.90;99.90
20977;DHT22;10647;51.016;3.720;2023-02-20T00:23:01;8.90;99.90
20977;DHT22;10647;51.016;3.720;2023-02-20T00:25:29;9.00;99.90
20977;DHT22;10647;51.016;3.720;2023-02-20T00:28:05;8.90;99.90
20977;DHT22;10647;51.016;3.720;2023-02-20T00:30:35;8.90;99.90
20977;DHT22;10647;51.016;3.720;2023-02-20T00:33:06;8.90;99.90
20977;DHT22;10647;51.016;3.720;2023-02-20T00:35:39;8.90;99.90
20977;DHT22;10647;51.016;3.720;2023-02-20T00:38:07;8.80;99.90
20977;DHT22;10647;51.016;3.720;2023-02-20T00:40:54;8.80;99.90
20977;DHT22;10647;51.016;3.720;2023-02-20T00:43:22;8.80;99.90
20977;DHT22;10647;51.016;3.720;2023-02-20T00:45:49;8.80;99.90
20977;DHT22;10647;51.016;3.720;2023-02-20T00:48:19;8.80;99.90
20977;DHT22;10647;51.016;3.720;2023-02-20T00:50:48;8.90;99.90
20977;DHT22;10647;51.016;3.720;2023-02-20T00:53:16;8.80;99.90
20977;DHT22;10647;51.016;3.720;2023-02-20T00:55:43;8.80;99.90
20977;DHT22;10647;51.016;3.720;2023-02-20T00:58:11;8.80;99.90
20977;DHT22;10647;51.016;3.720;2023-02-20T01:00:38;8.80;99.90
20977;DHT22;10647;51.016;3.720;2023-02-20T01:03:06;8.80;99.90
20977;DHT22;10647;51.016;3.720;2023-02-20T01:05:34;8.90;99.90
20977;DHT22;10647;51.016;3.720;2023-02-20T01:08:02;9.00;99.90
20977;DHT22;10647;51.016;3.720;2023-02-20T01:10:29;9.00;99.90
20977;DHT22;10647;51.016;3.720;2023-02-20T01:12:57;9.10;99.90
20977;DHT22;10647;51.016;3.720;2023-02-20T01:15:25;9.10;99.90
20977;DHT22;10647;51.016;3.720;2023-02-20T01:17:53;9.10;99.90
20977;DHT22;10647;51.016;3.720;2023-02-20T01:20:21;9.30;99.90
20977;DHT22;10647;51.016;3.720;2023-02-20T01:22:49;9.30;99.90
20977;DHT22;10647;51.016;3.720;2023-02-20T01:25:16;9.40;99.90
20977;DHT22;10647;51.016;3.720;2023-02-20T01:27:44;9.30;99.90
20977;DHT22;10647;51.016;3.720;2023-02-20T01:30:11;9.50;99.90
20977;DHT22;10647;51.016;3.720;2023-02-20T01:32:41;9.50;99.90
20977;DHT22;10647;51.016;3.720;2023-02-20T01:35:08;9.60;99.90
20977;DHT22;10647;51.016;3.720;2023-02-20T01:37:37;9.60;99.90
20977;DHT22;10647;51.016;3.720;2023-02-20T01:40:05;9.40;99.90
20977;DHT22;10647;51.016;3.720;2023-02-20T01:42:33;9.30;99.90
20977;DHT22;10647;51.016;3.720;2023-02-20T01:48:19;9.20;99.90
20977;DHT22;10647;51.016;3.720;2023-02-20T01:50:51;9.20;99.90
20977;DHT22;10647;51.016;3.720;2023-02-20T01:53:38;9.10;99.90
20977;DHT22;10647;51.016;3.720;2023-02-20T01:56:11;9.20;99.90
20977;DHT22;10647;51.016;3.720;2023-02-20T01:58:42;9.10;99.90
20977;DHT22;10647;51.016;3.720;2023-02-20T02:01:16;9.10;99.90
20977;DHT22;10647;51.016;3.720;2023-02-20T02:03:46;8.90;99.90
20977;DHT22;10647;51.016;3.720;2023-02-20T02:06:21;8.90;99.90
20977;DHT22;10647;51.016;3.720;2023-02-20T02:08:56;8.80;99.90
20977;DHT22;10647;51.016;3.720;2023-02-20T02:11:26;8.70;99.90
20977;DHT22;10647;51.016;3.720;2023-02-20T02:13:56;8.70;99.90
20977;DHT22;10647;51.016;3.720;2023-02-20T02:16:41;8.80;99.90
20977;DHT22;10647;51.016;3.720;2023-02-20T02:30:57;8.40;99.90
20977;DHT22;10647;51.016;3.720;2023-02-20T02:36:21;8.50;99.90
20977;DHT22;10647;51.016;3.720;2023-02-20T02:44:51;8.50;99.90
20977;DHT22;10647;51.016;3.720;2023-02-20T02:47:21;8.70;99.90
20977;DHT22;10647;51.016;3.720;2023-02-20T02:50:11;8.80;99.90
20977;DHT22;10647;51.016;3.720;2023-02-20T02:52:43;9.00;99.90
20977;DHT22;10647;51.016;3.720;2023-02-20T02:55:20;9.00;99.90
20977;DHT22;10647;51.016;3.720;2023-02-20T02:57:48;9.10;99.90
20977;DHT22;10647;51.016;3.720;2023-02-20T03:00:24;9.20;99.90
20977;DHT22;10647;51.016;3.720;2023-02-20T03:03:25;9.30;99.90
20977;DHT22;10647;51.016;3.720;2023-02-20T03:06:33;9.40;99.90
20977;DHT22;10647;51.016;3.720;2023-02-20T03:11:32;9.40;99.90
20977;DHT22;10647;51.016;3.720;2023-02-20T03:14:06;9.50;99.90
20977;DHT22;10647;51.016;3.720;2023-02-20T03:17:17;9.50;99.90
20977;DHT22;10647;51.016;3.720;2023-02-20T03:20:05;9.60;99.90
20977;DHT22;10647;51.016;3.720;2023-02-20T03:22:45;9.50;99.90
20977;DHT22;10647;51.016;3.720;2023-02-20T03:25:22;9.50;99.90
20977;DHT22;10647;51.016;3.720;2023-02-20T03:30:52;9.60;99.90
20977;DHT22;10647;51.016;3.720;2023-02-20T03:36:36;9.60;99.90
20977;DHT22;10647;51.016;3.720;2023-02-20T03:42:52;9.70;99.90
20977;DHT22;10647;51.016;3.720;2023-02-20T03:45:41;9.70;99.90
20977;DHT22;10647;51.016;3.720;2023-02-20T03:48:32;9.60;99.90
20977;DHT22;10647;51.016;3.720;2023-02-20T03:50:49;9.70;99.90
20977;DHT22;10647;51.016;3.720;2023-02-20T03:53:35;9.70;99.90
20977;DHT22;10647;51.016;3.720;2023-02-20T03:58:57;9.80;99.90
20977;DHT22;10647;51.016;3.720;2023-02-20T04:01:28;9.80;99.90
20977;DHT22;10647;51.016;3.720;2023-02-20T04:03:57;9.80;99.90
20977;DHT22;10647;51.016;3.720;2023-02-20T04:06:44;9.80;99.90
20977;DHT22;10647;51.016;3.720;2023-02-20T04:09:21;9.80;99.90
20977;DHT22;10647;51.016;3.720;2023-02-20T04:14:47;9.80;99.90
20977;DHT22;10647;51.016;3.720;2023-02-20T04:17:19;9.80;99.90
20977;DHT22;10647;51.016;3.720;2023-02-20T04:19:47;9.80;99.90
20977;DHT22;10647;51.016;3.720;2023-02-20T04:22:26;9.90;99.90
20977;DHT22;10647;51.016;3.720;2023-02-20T04:27:54;9.70;99.90
20977;DHT22;10647;51.016;3.720;2023-02-20T04:30:29;9.80;99.90
20977;DHT22;10647;51.016;3.720;2023-02-20T04:33:12;9.80;99.90
20977;DHT22;10647;51.016;3.720;2023-02-20T04:36:06;9.90;99.90
20977;DHT22;10647;51.016;3.720;2023-02-20T04:38:42;9.90;99.90
20977;DHT22;10647;51.016;3.720;2023-02-20T04:41:09;9.90;99.90
20977;DHT22;10647;51.016;3.720;2023-02-20T04:43:37;9.90;99.90
20977;DHT22;10647;51.016;3.720;2023-02-20T04:46:04;9.90;99.90
20977;DHT22;10647;51.016;3.720;2023-02-20T04:48:39;10.00;99.90
20977;DHT22;10647;51.016;3.720;2023-02-20T04:51:18;10.00;99.90
20977;DHT22;10647;51.016;3.720;2023-02-20T04:53:53;10.00;99.90
20977;DHT22;10647;51.016;3.720;2023-02-20T04:56:23;10.00;99.90
20977;DHT22;10647;51.016;3.720;2023-02-20T04:59:07;10.10;99.90
20977;DHT22;10647;51.016;3.720;2023-02-20T05:01:53;10.00;99.90
20977;DHT22;10647;51.016;3.720;2023-02-20T05:04:21;10.00;99.90
20977;DHT22;10647;51.016;3.720;2023-02-20T05:06:51;10.00;99.90
20977;DHT22;10647;51.016;3.720;2023-02-20T05:09:20;10.10;99.90
20977;DHT22;10647;51.016;3.720;2023-02-20T05:11:51;10.10;99.90
20977;DHT22;10647;51.016;3.720;2023-02-20T05:14:19;10.20;99.90
20977;DHT22;10647;51.016;3.720;2023-02-20T05:16:47;10.10;99.90
20977;DHT22;10647;51.016;3.720;2023-02-20T05:19:18;10.10;99.90
20977;DHT22;10647;51.016;3.720;2023-02-20T05:21:49;10.20;99.90
20977;DHT22;10647;51.016;3.720;2023-02-20T05:24:37;10.20;99.90
20977;DHT22;10647;51.016;3.720;2023-02-20T05:27:12;10.20;99.90
20977;DHT22;10647;51.016;3.720;2023-02-20T05:29:53;10.20;99.90
20977;DHT22;10647;51.016;3.720;2023-02-20T05:32:23;10.10;99.90
20977;DHT22;10647;51.016;3.720;2023-02-20T05:34:52;10.20;99.90
20977;DHT22;10647;51.016;3.720;2023-02-20T05:37:26;10.20;99.90
20977;DHT22;10647;51.016;3.720;2023-02-20T05:39:55;10.30;99.90
20977;DHT22;10647;51.016;3.720;2023-02-20T05:42:26;10.20;99.90
20977;DHT22;10647;51.016;3.720;2023-02-20T05:44:54;10.30;99.90
20977;DHT22;10647;51.016;3.720;2023-02-20T05:47:23;10.30;99.90
20977;DHT22;10647;51.016;3.720;2023-02-20T05:49:52;10.30;99.90
20977;DHT22;10647;51.016;3.720;2023-02-20T05:52:25;10.30;99.90
20977;DHT22;10647;51.016;3.720;2023-02-20T05:54:56;10.30;99.90
20977;DHT22;10647;51.016;3.720;2023-02-20T05:57:24;10.30;99.90
20977;DHT22;10647;51.016;3.720;2023-02-20T05:59:53;10.30;99.90
20977;DHT22;10647;51.016;3.720;2023-02-20T06:02:40;10.30;99.90
20977;DHT22;10647;51.016;3.720;2023-02-20T06:05:08;10.40;99.90
20977;DHT22;10647;51.016;3.720;2023-02-20T06:07:46;10.40;99.90
20977;DHT22;10647;51.016;3.720;2023-02-20T06:10:20;10.40;99.90
20977;DHT22;10647;51.016;3.720;2023-02-20T06:12:53;10.30;99.90
20977;DHT22;10647;51.016;3.720;2023-02-20T06:15:21;10.40;99.90
20977;DHT22;10647;51.016;3.720;2023-02-20T06:17:54;10.30;99.90
20977;DHT22;10647;51.016;3.720;2023-02-20T06:20:22;10.40;99.90
20977;DHT22;10647;51.016;3.720;2023-02-20T06:22:49;10.40;99.90
20977;DHT22;10647;51.016;3.720;2023-02-20T06:25:17;10.40;99.90
20977;DHT22;10647;51.016;3.720;2023-02-20T06:27:44;10.40;99.90
20977;DHT22;10647;51.016;3.720;2023-02-20T06:33:31;10.40;99.90
20977;DHT22;10647;51.016;3.720;2023-02-20T06:35:59;10.50;99.90
20977;DHT22;10647;51.016;3.720;2023-02-20T06:38:32;10.40;99.90
20977;DHT22;10647;51.016;3.720;2023-02-20T06:41:02;10.40;99.90
20977;DHT22;10647;51.016;3.720;2023-02-20T06:43:31;10.50;99.90
20977;DHT22;10647;51.016;3.720;2023-02-20T06:46:04;10.40;99.90
20977;DHT22;10647;51.016;3.720;2023-02-20T06:48:33;10.40;99.90
20977;DHT22;10647;51.016;3.720;2023-02-20T06:51:03;10.50;99.90
20977;DHT22;10647;51.016;3.720;2023-02-20T06:53:30;10.60;99.90
20977;DHT22;10647;51.016;3.720;2023-02-20T06:56:01;10.50;99.90
20977;DHT22;10647;51.016;3.720;2023-02-20T06:58:30;10.50;99.90
20977;DHT22;10647;51.016;3.720;2023-02-20T07:00:58;10.50;99.90
20977;DHT22;10647;51.016;3.720;2023-02-20T07:03:26;10.50;99.90
20977;DHT22;10647;51.016;3.720;2023-02-20T07:05:54;10.50;99.90
20977;DHT22;10647;51.016;3.720;2023-02-20T07:08:27;10.60;99.90
20977;DHT22;10647;51.016;3.720;2023-02-20T07:10:55;10.70;99.90
20977;DHT22;10647;51.016;3.720;2023-02-20T07:13:25;10.70;99.90
20977;DHT22;10647;51.016;3.720;2023-02-20T07:15:55;10.70;99.90
20977;DHT22;10647;51.016;3.720;2023-02-20T07:18:26;10.80;99.90
20977;DHT22;10647;51.016;3.720;2023-02-20T07:23:37;10.80;99.90
20977;DHT22;10647;51.016;3.720;2023-02-20T07:26:19;10.80;99.90
20977;DHT22;10647;51.016;3.720;2023-02-20T07:28:38;10.90;99.90
20977;DHT22;10647;51.016;3.720;2023-02-20T07:31:14;10.90;99.90
20977;DHT22;10647;51.016;3.720;2023-02-20T07:33:42;11.00;99.90
20977;DHT22;10647;51.016;3.720;2023-02-20T07:36:14;10.90;99.90
20977;DHT22;10647;51.016;3.720;2023-02-20T07:38:42;10.90;99.90
20977;DHT22;10647;51.016;3.720;2023-02-20T07:41:10;11.00;99.90
20977;DHT22;10647;51.016;3.720;2023-02-20T07:43:39;11.00;99.90
20977;DHT22;10647;51.016;3.720;2023-02-20T07:46:07;11.00;99.90
20977;DHT22;10647;51.016;3.720;2023-02-20T07:48:37;11.10;99.90
20977;DHT22;10647;51.016;3.720;2023-02-20T07:51:05;11.20;99.90
20977;DHT22;10647;51.016;3.720;2023-02-20T07:53:32;11.20;99.90
20977;DHT22;10647;51.016;3.720;2023-02-20T07:56:00;11.20;99.90
20977;DHT22;10647;51.016;3.720;2023-02-20T07:58:33;11.20;99.90
20977;DHT22;10647;51.016;3.720;2023-02-20T08:01:04;11.30;99.90
20977;DHT22;10647;51.016;3.720;2023-02-20T08:03:31;11.30;99.90
20977;DHT22;10647;51.016;3.720;2023-02-20T08:05:59;11.30;99.90
20977;DHT22;10647;51.016;3.720;2023-02-20T08:08:27;11.30;99.90
20977;DHT22;10647;51.016;3.720;2023-02-20T08:11:00;11.40;99.90
20977;DHT22;10647;51.016;3.720;2023-02-20T08:13:31;11.50;99.90
20977;DHT22;10647;51.016;3.720;2023-02-20T08:15:58;11.40;99.90
20977;DHT22;10647;51.016;3.720;2023-02-20T08:18:29;11.40;99.90
20977;DHT22;10647;51.016;3.720;2023-02-20T08:20:56;11.50;99.90
20977;DHT22;10647;51.016;3.720;2023-02-20T08:23:26;11.50;99.90
20977;DHT22;10647;51.016;3.720;2023-02-20T08:25:55;11.50;99.90
20977;DHT22;10647;51.016;3.720;2023-02-20T08:28:23;11.50;99.90
20977;DHT22;10647;51.016;3.720;2023-02-20T08:30:52;11.50;99.90
20977;DHT22;10647;51.016;3.720;2023-02-20T08:33:20;11.50;99.90
20977;DHT22;10647;51.016;3.720;2023-02-20T08:35:47;11.70;99.90
20977;DHT22;10647;51.016;3.720;2023-02-20T08:38:35;11.70;99.90
20977;DHT22;10647;51.016;3.720;2023-02-20T08:41:05;11.80;99.90
20977;DHT22;10647;51.016;3.720;2023-02-20T08:43:38;11.80;99.90
20977;DHT22;10647;51.016;3.720;2023-02-20T08:46:06;11.80;99.90
20977;DHT22;10647;51.016;3.720;2023-02-20T08:48:34;11.90;99.90
20977;DHT22;10647;51.016;3.720;2023-02-20T08:51:03;11.90;99.90
20977;DHT22;10647;51.016;3.720;2023-02-20T08:53:33;11.90;99.90
20977;DHT22;10647;51.016;3.720;2023-02-20T08:56:03;12.00;99.90
20977;DHT22;10647;51.016;3.720;2023-02-20T08:58:30;12.00;99.90
20977;DHT22;10647;51.016;3.720;2023-02-20T09:01:00;12.10;99.90
20977;DHT22;10647;51.016;3.720;2023-02-20T09:03:33;12.10;99.90
20977;DHT22;10647;51.016;3.720;2023-02-20T09:06:03;12.20;99.90
20977;DHT22;10647;51.016;3.720;2023-02-20T09:08:33;12.20;99.90
20977;DHT22;10647;51.016;3.720;2023-02-20T09:11:01;12.30;99.90
20977;DHT22;10647;51.016;3.720;2023-02-20T09:13:47;12.40;99.90
20977;DHT22;10647;51.016;3.720;2023-02-20T09:19:12;12.50;99.90
20977;DHT22;10647;51.016;3.720;2023-02-20T09:21:43;12.50;99.90
20977;DHT22;10647;51.016;3.720;2023-02-20T09:24:09;12.50;99.90
20977;DHT22;10647;51.016;3.720;2023-02-20T09:26:37;12.50;99.90
20977;DHT22;10647;51.016;3.720;2023-02-20T09:29:04;12.50;99.90
20977;DHT22;10647;51.016;3.720;2023-02-20T09:31:33;12.60;99.90
20977;DHT22;10647;51.016;3.720;2023-02-20T09:34:00;12.60;99.90
20977;DHT22;10647;51.016;3.720;2023-02-20T09:36:29;12.60;99.90
20977;DHT22;10647;51.016;3.720;2023-02-20T09:38:57;12.70;99.90
20977;DHT22;10647;51.016;3.720;2023-02-20T09:44:31;12.90;99.90
20977;DHT22;10647;51.016;3.720;2023-02-20T09:47:02;12.80;99.90
20977;DHT22;10647;51.016;3.720;2023-02-20T09:49:32;12.90;99.90
20977;DHT22;10647;51.016;3.720;2023-02-20T09:52:09;13.00;99.90
20977;DHT22;10647;51.016;3.720;2023-02-20T09:54:42;13.00;99.90
20977;DHT22;10647;51.016;3.720;2023-02-20T10:01:12;13.10;99.90
20977;DHT22;10647;51.016;3.720;2023-02-20T10:03:21;13.10;99.90
20977;DHT22;10647;51.016;3.720;2023-02-20T10:05:49;13.10;99.90
20977;DHT22;10647;51.016;3.720;2023-02-20T10:08:20;13.20;99.90
20977;DHT22;10647;51.016;3.720;2023-02-20T10:10:56;13.30;99.90
20977;DHT22;10647;51.016;3.720;2023-02-20T10:13:51;13.20;99.90
20977;DHT22;10647;51.016;3.720;2023-02-20T10:16:41;13.30;99.90
20977;DHT22;10647;51.016;3.720;2023-02-20T10:25:13;13.30;99.90
20977;DHT22;10647;51.016;3.720;2023-02-20T10:27:51;13.20;99.90
20977;DHT22;10647;51.016;3.720;2023-02-20T10:30:31;13.10;99.90
20977;DHT22;10647;51.016;3.720;2023-02-20T10:36:23;13.10;99.90
20977;DHT22;10647;51.016;3.720;2023-02-20T10:39:06;13.00;99.90
20977;DHT22;10647;51.016;3.720;2023-02-20T10:41:49;13.10;99.90
20977;DHT22;10647;51.016;3.720;2023-02-20T10:44:29;12.90;99.90
20977;DHT22;10647;51.016;3.720;2023-02-20T10:59:25;13.20;99.90
20977;DHT22;10647;51.016;3.720;2023-02-20T11:01:56;13.10;99.90
20977;DHT22;10647;51.016;3.720;2023-02-20T11:04:38;13.20;99.90
20977;DHT22;10647;51.016;3.720;2023-02-20T11:07:14;13.30;99.90
20977;DHT22;10647;51.016;3.720;2023-02-20T11:09:44;13.30;99.90
20977;DHT22;10647;51.016;3.720;2023-02-20T11:15:07;13.30;99.90
20977;DHT22;10647;51.016;3.720;2023-02-20T11:17:38;13.40;99.90
20977;DHT22;10647;51.016;3.720;2023-02-20T11:22:53;13.70;99.90
20977;DHT22;10647;51.016;3.720;2023-02-20T11:25:30;13.70;99.90
20977;DHT22;10647;51.016;3.720;2023-02-20T11:30:42;13.80;99.90
20977;DHT22;10647;51.016;3.720;2023-02-20T11:33:20;13.80;99.90
20977;DHT22;10647;51.016;3.720;2023-02-20T11:36:21;13.90;99.90
20977;DHT22;10647;51.016;3.720;2023-02-20T11:38:32;13.80;99.90
20977;DHT22;10647;51.016;3.720;2023-02-20T11:41:12;13.90;99.90
20977;DHT22;10647;51.016;3.720;2023-02-20T11:44:04;14.00;99.90
20977;DHT22;10647;51.016;3.720;2023-02-20T11:50:18;14.10;99.90
20977;DHT22;10647;51.016;3.720;2023-02-20T11:53:02;14.20;99.90
20977;DHT22;10647;51.016;3.720;2023-02-20T11:55:34;14.10;99.90
20977;DHT22;10647;51.016;3.720;2023-02-20T11:58:03;14.10;99.90
20977;DHT22;10647;51.016;3.720;2023-02-20T12:00:45;14.10;99.90
20977;DHT22;10647;51.016;3.720;2023-02-20T12:03:22;14.10;99.90
20977;DHT22;10647;51.016;3.720;2023-02-20T12:05:56;14.20;99.90
20977;DHT22;10647;51.016;3.720;2023-02-20T12:08:42;14.20;99.90
20977;DHT22;10647;51.016;3.720;2023-02-20T12:11:19;14.40;99.90
20977;DHT22;10647;51.016;3.720;2023-02-20T12:13:50;14.40;99.90
20977;DHT22;10647;51.016;3.720;2023-02-20T12:16:40;14.40;99.90
20977;DHT22;10647;51.016;3.720;2023-02-20T12:34:48;14.60;99.90
20977;DHT22;10647;51.016;3.720;2023-02-20T12:40:27;14.30;99.90
20977;DHT22;10647;51.016;3.720;2023-02-20T12:51:26;14.50;99.90
20977;DHT22;10647;51.016;3.720;2023-02-20T12:53:39;14.50;99.90
20977;DHT22;10647;51.016;3.720;2023-02-20T12:56:31;14.60;99.90
20977;DHT22;10647;51.016;3.720;2023-02-20T13:01:44;14.50;99.90
20977;DHT22;10647;51.016;3.720;2023-02-20T13:04:31;14.60;99.90
20977;DHT22;10647;51.016;3.720;2023-02-20T13:07:31;14.70;99.90
20977;DHT22;10647;51.016;3.720;2023-02-20T13:10:12;14.80;99.90
20977;DHT22;10647;51.016;3.720;2023-02-20T13:12:59;14.70;99.90
20977;DHT22;10647;51.016;3.720;2023-02-20T13:15:42;14.50;99.90
20977;DHT22;10647;51.016;3.720;2023-02-20T13:18:35;14.60;99.90
20977;DHT22;10647;51.016;3.720;2023-02-20T13:21:05;14.70;99.90
20977;DHT22;10647;51.016;3.720;2023-02-20T13:23:36;14.50;99.90
20977;DHT22;10647;51.016;3.720;2023-02-20T13:28:53;14.60;99.90
20977;DHT22;10647;51.016;3.720;2023-02-20T13:36:56;14.30;99.90
20977;DHT22;10647;51.016;3.720;2023-02-20T13:39:38;14.40;99.90
20977;DHT22;10647;51.016;3.720;2023-02-20T13:42:26;14.40;99.90
20977;DHT22;10647;51.016;3.720;2023-02-20T13:44:54;14.50;99.90
20977;DHT22;10647;51.016;3.720;2023-02-20T13:47:26;14.60;99.90
20977;DHT22;10647;51.016;3.720;2023-02-20T13:49:58;14.60;99.90
20977;DHT22;10647;51.016;3.720;2023-02-20T13:55:23;14.60;99.90
20977;DHT22;10647;51.016;3.720;2023-02-20T13:58:12;14.80;99.90
20977;DHT22;10647;51.016;3.720;2023-02-20T14:02:56;14.60;99.90
20977;DHT22;10647;51.016;3.720;2023-02-20T14:05:26;14.70;99.90
20977;DHT22;10647;51.016;3.720;2023-02-20T14:07:55;14.70;99.90
20977;DHT22;10647;51.016;3.720;2023-02-20T14:10:34;14.70;99.90
20977;DHT22;10647;51.016;3.720;2023-02-20T14:13:17;14.80;99.90
20977;DHT22;10647;51.016;3.720;2023-02-20T14:15:53;14.80;99.90
20977;DHT22;10647;51.016;3.720;2023-02-20T14:18:32;14.80;99.90
20977;DHT22;10647;51.016;3.720;2023-02-20T14:21:17;14.70;99.90
20977;DHT22;10647;51.016;3.720;2023-02-20T14:23:47;14.60;99.90
20977;DHT22;10647;51.016;3.720;2023-02-20T14:29:29;14.40;99.90
20977;DHT22;10647;51.016;3.720;2023-02-20T14:46:32;14.30;99.90
20977;DHT22;10647;51.016;3.720;2023-02-20T14:49:22;14.30;99.90
20977;DHT22;10647;51.016;3.720;2023-02-20T14:51:45;14.20;99.90
20977;DHT22;10647;51.016;3.720;2023-02-20T14:54:23;14.20;99.90
20977;DHT22;10647;51.016;3.720;2023-02-20T14:56:55;14.10;99.90
20977;DHT22;10647;51.016;3.720;2023-02-20T14:59:34;14.00;99.90
20977;DHT22;10647;51.016;3.720;2023-02-20T15:04:51;14.00;99.90
20977;DHT22;10647;51.016;3.720;2023-02-20T15:07:26;14.00;99.90
20977;DHT22;10647;51.016;3.720;2023-02-20T15:10:01;14.00;99.90
20977;DHT22;10647;51.016;3.720;2023-02-20T15:12:33;13.90;99.90
20977;DHT22;10647;51.016;3.720;2023-02-20T15:15:06;13.90;99.90
20977;DHT22;10647;51.016;3.720;2023-02-20T15:17:41;13.90;99.90
20977;DHT22;10647;51.016;3.720;2023-02-20T15:20:34;13.90;99.90
20977;DHT22;10647;51.016;3.720;2023-02-20T15:25:58;13.80;99.90
20977;DHT22;10647;51.016;3.720;2023-02-20T15:34:17;13.70;99.90
20977;DHT22;10647;51.016;3.720;2023-02-20T15:36:49;13.60;99.90
20977;DHT22;10647;51.016;3.720;2023-02-20T15:39:20;13.60;99.90
20977;DHT22;10647;51.016;3.720;2023-02-20T15:41:56;13.60;99.90
20977;DHT22;10647;51.016;3.720;2023-02-20T15:44:24;13.60;99.90
20977;DHT22;10647;51.016;3.720;2023-02-20T15:46:54;13.50;99.90
20977;DHT22;10647;51.016;3.720;2023-02-20T15:49:30;13.60;99.90
20977;DHT22;10647;51.016;3.720;2023-02-20T15:52:06;13.50;99.90
20977;DHT22;10647;51.016;3.720;2023-02-20T15:54:35;13.60;99.90
20977;DHT22;10647;51.016;3.720;2023-02-20T15:57:04;13.60;99.90
20977;DHT22;10647;51.016;3.720;2023-02-20T15:59:32;13.50;99.90
20977;DHT22;10647;51.016;3.720;2023-02-20T16:01:59;13.40;99.90
20977;DHT22;10647;51.016;3.720;2023-02-20T16:04:29;13.40;99.90
20977;DHT22;10647;51.016;3.720;2023-02-20T16:06:58;13.40;99.90
20977;DHT22;10647;51.016;3.720;2023-02-20T16:09:26;13.40;99.90
20977;DHT22;10647;51.016;3.720;2023-02-20T16:11:53;13.40;99.90
20977;DHT22;10647;51.016;3.720;2023-02-20T16:14:22;13.40;99.90
20977;DHT22;10647;51.016;3.720;2023-02-20T16:16:55;13.30;99.90
20977;DHT22;10647;51.016;3.720;2023-02-20T16:19:23;13.30;99.90
20977;DHT22;10647;51.016;3.720;2023-02-20T16:21:51;13.10;99.90
20977;DHT22;10647;51.016;3.720;2023-02-20T16:24:21;13.00;99.90
20977;DHT22;10647;51.016;3.720;2023-02-20T16:26:51;13.10;99.90
20977;DHT22;10647;51.016;3.720;2023-02-20T16:29:33;13.00;99.90
20977;DHT22;10647;51.016;3.720;2023-02-20T16:32:17;13.00;99.90
20977;DHT22;10647;51.016;3.720;2023-02-20T16:34:46;12.80;99.90
20977;DHT22;10647;51.016;3.720;2023-02-20T16:40:04;12.80;99.90
20977;DHT22;10647;51.016;3.720;2023-02-20T16:42:36;12.80;99.90
20977;DHT22;10647;51.016;3.720;2023-02-20T16:45:15;12.70;99.90
20977;DHT22;10647;51.016;3.720;2023-02-20T16:47:48;12.60;99.90
20977;DHT22;10647;51.016;3.720;2023-02-20T16:50:20;12.70;99.90
20977;DHT22;10647;51.016;3.720;2023-02-20T16:52:51;12.70;99.90
20977;DHT22;10647;51.016;3.720;2023-02-20T16:57:56;12.60;99.90
20977;DHT22;10647;51.016;3.720;2023-02-20T17:03:22;12.50;99.90
20977;DHT22;10647;51.016;3.720;2023-02-20T17:05:50;12.50;99.90
20977;DHT22;10647;51.016;3.720;2023-02-20T17:08:20;12.50;99.90
20977;DHT22;10647;51.016;3.720;2023-02-20T17:10:47;12.50;99.90
20977;DHT22;10647;51.016;3.720;2023-02-20T17:13:17;12.40;99.90
20977;DHT22;10647;51.016;3.720;2023-02-20T17:15:44;12.40;99.90
20977;DHT22;10647;51.016;3.720;2023-02-20T17:18:13;12.50;99.90
20977;DHT22;10647;51.016;3.720;2023-02-20T17:20:41;12.50;99.90
20977;DHT22;10647;51.016;3.720;2023-02-20T17:23:10;12.40;99.90
20977;DHT22;10647;51.016;3.720;2023-02-20T17:25:44;12.40;99.90
20977;DHT22;10647;51.016;3.720;2023-02-20T17:28:11;12.40;99.90
20977;DHT22;10647;51.016;3.720;2023-02-20T17:30:40;12.40;99.90
20977;DHT22;10647;51.016;3.720;2023-02-20T17:33:08;12.40;99.90
20977;DHT22;10647;51.016;3.720;2023-02-20T17:35:36;12.40;99.90
20977;DHT22;10647;51.016;3.720;2023-02-20T17:38:03;12.40;99.90
20977;DHT22;10647;51.016;3.720;2023-02-20T17:40:34;12.30;99.90
20977;DHT22;10647;51.016;3.720;2023-02-20T17:43:04;12.40;99.90
20977;DHT22;10647;51.016;3.720;2023-02-20T17:45:31;12.30;99.90
20977;DHT22;10647;51.016;3.720;2023-02-20T17:48:02;12.30;99.90
20977;DHT22;10647;51.016;3.720;2023-02-20T17:50:36;12.40;99.90
20977;DHT22;10647;51.016;3.720;2023-02-20T17:53:05;12.30;99.90
20977;DHT22;10647;51.016;3.720;2023-02-20T17:55:34;12.30;99.90
20977;DHT22;10647;51.016;3.720;2023-02-20T17:58:02;12.30;99.90
20977;DHT22;10647;51.016;3.720;2023-02-20T18:00:29;12.20;99.90
20977;DHT22;10647;51.016;3.720;2023-02-20T18:02:57;12.20;99.90
20977;DHT22;10647;51.016;3.720;2023-02-20T18:05:24;12.10;99.90
20977;DHT22;10647;51.016;3.720;2023-02-20T18:07:52;12.10;99.90
20977;DHT22;10647;51.016;3.720;2023-02-20T18:10:19;12.20;99.90
20977;DHT22;10647;51.016;3.720;2023-02-20T18:12:47;12.10;99.90
20977;DHT22;10647;51.016;3.720;2023-02-20T18:15:16;12.00;99.90
20977;DHT22;10647;51.016;3.720;2023-02-20T18:17:45;12.00;99.90
20977;DHT22;10647;51.016;3.720;2023-02-20T18:20:15;12.00;99.90
20977;DHT22;10647;51.016;3.720;2023-02-20T18:22:42;12.00;99.90
20977;DHT22;10647;51.016;3.720;2023-02-20T18:25:10;12.00;99.90
20977;DHT22;10647;51.016;3.720;2023-02-20T18:27:37;12.00;99.90
20977;DHT22;10647;51.016;3.720;2023-02-20T18:30:05;12.00;99.90
20977;DHT22;10647;51.016;3.720;2023-02-20T18:32:33;12.10;99.90
20977;DHT22;10647;51.016;3.720;2023-02-20T18:35:02;12.00;99.90
20977;DHT22;10647;51.016;3.720;2023-02-20T18:37:29;12.00;99.90
20977;DHT22;10647;51.016;3.720;2023-02-20T18:39:57;11.90;99.90
20977;DHT22;10647;51.016;3.720;2023-02-20T18:42:24;11.90;99.90
20977;DHT22;10647;51.016;3.720;2023-02-20T18:44:52;11.90;99.90
20977;DHT22;10647;51.016;3.720;2023-02-20T18:47:20;11.90;99.90
20977;DHT22;10647;51.016;3.720;2023-02-20T18:49:48;11.90;99.90
20977;DHT22;10647;51.016;3.720;2023-02-20T18:52:17;11.80;99.90
20977;DHT22;10647;51.016;3.720;2023-02-20T18:54:46;11.80;99.90
20977;DHT22;10647;51.016;3.720;2023-02-20T18:57:13;11.90;99.90
20977;DHT22;10647;51.016;3.720;2023-02-20T18:59:42;11.90;99.90
20977;DHT22;10647;51.016;3.720;2023-02-20T19:02:14;11.80;99.90